Time;durP1;ratioP1;P1;durP2;ratioP2;P2;SDS_P1;SDS_P2;PMS_P1;PMS_P2;Temp;Humidity;BMP_temperature;BMP_pressure;BME280_temperature;BME280_humidity;BME280_pressure;Samples;Min_cycle;Max_cycle;Signal;HPM_P1;HPM_P2
2021/09/08 00:00:42;;;;;;;10.90;7.18;;;16.80;97.10;;;;;;4973609;28;20035;-70
2021/09/08 00:03:08;;;;;;;15.73;7.40;;;16.80;97.20;;;;;;4973873;28;20144;-70
2021/09/08 00:05:34;;;;;;;14.10;7.35;;;16.70;97.20;;;;;;4973513;28;20505;-70
2021/09/08 00:07:59;;;;;;;13.27;7.47;;;16.70;97.30;;;;;;4973496;28;20027;-69
2021/09/08 00:10:25;;;;;;;15.13;6.53;;;16.80;97.30;;;;;;4973553;28;20045;-70
2021/09/08 00:12:51;;;;;;;12.80;6.80;;;16.60;97.30;;;;;;4973210;28;20096;-70
2021/09/08 00:15:16;;;;;;;11.13;7.40;;;16.70;97.40;;;;;;4973303;28;20039;-71
2021/09/08 00:17:42;;;;;;;17.25;7.78;;;16.60;97.30;;;;;;4973539;28;20050;-71
2021/09/08 00:20:10;;;;;;;11.57;7.35;;;16.60;97.40;;;;;;4973200;28;20038;-71
2021/09/08 00:22:36;;;;;;;15.55;7.10;;;16.60;97.40;;;;;;4973041;28;20043;-71
2021/09/08 00:25:03;;;;;;;14.88;6.72;;;16.60;97.40;;;;;;4973069;28;20050;-71
2021/09/08 00:27:28;;;;;;;13.82;7.38;;;16.50;97.50;;;;;;4972945;28;20027;-71
2021/09/08 00:29:54;;;;;;;13.25;7.35;;;16.40;97.60;;;;;;4973225;28;20030;-70
2021/09/08 00:32:19;;;;;;;16.27;7.43;;;16.40;97.70;;;;;;4972935;28;20105;-70
2021/09/08 00:34:45;;;;;;;14.10;7.50;;;16.30;97.70;;;;;;4972597;28;20485;-70
2021/09/08 00:37:11;;;;;;;15.07;7.25;;;16.40;97.70;;;;;;4972877;28;20030;-70
2021/09/08 00:39:36;;;;;;;15.20;7.22;;;16.40;97.70;;;;;;4972960;28;20457;-72
2021/09/08 00:42:12;;;;;;;11.23;6.68;;;16.40;97.70;;;;;;4973141;28;20108;-70
2021/09/08 00:44:38;;;;;;;11.60;6.88;;;16.40;97.60;;;;;;4972888;28;20049;-71
2021/09/08 00:47:04;;;;;;;21.00;7.47;;;16.50;97.70;;;;;;4972706;28;20113;-71
2021/09/08 00:49:31;;;;;;;17.00;7.78;;;16.40;97.70;;;;;;4972415;28;20249;-71
2021/09/08 00:51:58;;;;;;;12.68;7.10;;;16.40;97.80;;;;;;4972775;28;20027;-71
2021/09/08 00:54:24;;;;;;;10.55;6.53;;;16.30;97.70;;;;;;4972705;28;20023;-71
2021/09/08 00:56:54;;;;;;;16.90;7.07;;;16.30;97.80;;;;;;4972923;28;20232;-70
2021/09/08 00:59:20;;;;;;;12.23;6.97;;;16.20;97.90;;;;;;4988756;28;20034;-70
2021/09/08 01:01:46;;;;;;;12.20;7.47;;;16.30;97.90;;;;;;4992045;28;20057;-69
2021/09/08 01:04:13;;;;;;;12.77;7.10;;;16.20;97.90;;;;;;4991759;28;20114;-71
2021/09/08 01:06:40;;;;;;;12.90;6.77;;;16.20;97.90;;;;;;4991980;28;20123;-70
2021/09/08 01:09:06;;;;;;;16.42;7.57;;;16.10;97.90;;;;;;4992255;28;20392;-71
2021/09/08 01:11:33;;;;;;;17.08;8.27;;;16.10;97.90;;;;;;4991964;28;20514;-70
2021/09/08 01:14:02;;;;;;;15.40;8.13;;;16.10;98.10;;;;;;4992026;28;20092;-71
2021/09/08 01:16:27;;;;;;;12.25;7.47;;;16.20;98.20;;;;;;4991762;28;20034;-71
2021/09/08 01:18:53;;;;;;;16.50;7.50;;;16.20;98.20;;;;;;4991387;28;20495;-70
2021/09/08 01:21:21;;;;;;;13.90;7.80;;;16.20;98.20;;;;;;4993761;28;20070;-69
2021/09/08 01:23:46;;;;;;;16.17;8.15;;;16.20;98.30;;;;;;4998663;28;20026;-71
2021/09/08 01:26:12;;;;;;;11.77;7.47;;;16.30;98.20;;;;;;4998086;28;20030;-71
2021/09/08 01:28:38;;;;;;;12.30;7.28;;;16.30;98.20;;;;;;4998188;28;20037;-70
2021/09/08 01:31:05;;;;;;;17.52;7.95;;;16.20;98.10;;;;;;4998334;28;20041;-69
2021/09/08 01:33:31;;;;;;;16.45;8.73;;;16.30;98.00;;;;;;4998165;28;20032;-70
2021/09/08 01:35:57;;;;;;;15.70;7.75;;;16.20;98.00;;;;;;4997298;28;20045;-71
2021/09/08 01:38:23;;;;;;;13.15;7.53;;;16.20;98.00;;;;;;4998159;28;20031;-68
2021/09/08 01:40:49;;;;;;;14.98;8.15;;;16.10;98.00;;;;;;4998268;28;20113;-70
2021/09/08 01:43:19;;;;;;;17.33;8.40;;;16.20;98.30;;;;;;4997977;28;20058;-70
2021/09/08 01:45:45;;;;;;;17.00;8.15;;;16.20;98.00;;;;;;4998030;28;20456;-71
2021/09/08 01:48:11;;;;;;;16.83;8.98;;;16.20;98.10;;;;;;4997178;28;20041;-71
2021/09/08 01:50:37;;;;;;;15.02;8.95;;;16.30;98.00;;;;;;4998182;28;20042;-71
2021/09/08 01:53:04;;;;;;;15.85;8.43;;;16.20;97.90;;;;;;4997823;28;20033;-71
2021/09/08 01:55:29;;;;;;;13.18;8.10;;;16.20;98.00;;;;;;4997911;28;20057;-71
2021/09/08 01:57:55;;;;;;;20.17;8.45;;;16.30;97.40;;;;;;4997909;28;20452;-70
2021/09/08 02:00:21;;;;;;;14.25;8.13;;;16.40;97.50;;;;;;4997762;28;20483;-70
2021/09/08 02:02:46;;;;;;;13.57;8.15;;;16.40;97.70;;;;;;4998443;28;20409;-69
2021/09/08 02:05:16;;;;;;;20.55;9.55;;;16.30;97.70;;;;;;4996667;28;20045;-70
2021/09/08 02:07:42;;;;;;;18.15;8.55;;;16.40;97.80;;;;;;4997894;28;20042;-70
2021/09/08 02:10:10;;;;;;;12.38;8.13;;;16.40;98.00;;;;;;4997889;28;20391;-70
2021/09/08 02:12:36;;;;;;;14.65;8.52;;;16.30;97.90;;;;;;4997793;28;20448;-70
2021/09/08 02:15:03;;;;;;;16.50;8.23;;;16.20;97.90;;;;;;4997961;28;20065;-70
2021/09/08 02:17:28;;;;;;;17.10;8.70;;;16.20;97.90;;;;;;4997697;28;20361;-70
2021/09/08 02:19:54;;;;;;;15.15;9.20;;;16.20;97.90;;;;;;4997481;28;20030;-70
2021/09/08 02:22:19;;;;;;;16.10;9.32;;;16.20;98.20;;;;;;4997414;28;20584;-70
2021/09/08 02:24:45;;;;;;;15.25;8.38;;;16.20;97.90;;;;;;4997758;28;20030;-71
2021/09/08 02:27:11;;;;;;;19.33;8.43;;;16.10;98.00;;;;;;4998041;28;20033;-70
2021/09/08 02:29:37;;;;;;;14.07;8.00;;;16.20;97.90;;;;;;4997774;28;20468;-71
2021/09/08 02:32:04;;;;;;;15.70;8.73;;;16.20;98.00;;;;;;4996916;28;20027;-70
2021/09/08 02:34:30;;;;;;;19.10;8.48;;;16.20;98.00;;;;;;4993718;28;20031;-71
2021/09/08 02:36:56;;;;;;;18.02;8.85;;;16.00;98.10;;;;;;4994509;28;20045;-70
2021/09/08 02:39:21;;;;;;;15.57;8.52;;;16.00;98.20;;;;;;4994398;28;20023;-71
2021/09/08 02:41:47;;;;;;;12.90;7.95;;;15.90;98.20;;;;;;4994807;28;20030;-71
2021/09/08 02:44:12;;;;;;;18.23;8.10;;;15.90;98.30;;;;;;4994244;28;20073;-72
2021/09/08 02:46:38;;;;;;;13.05;7.35;;;15.80;98.40;;;;;;4993459;28;20042;-71
2021/09/08 02:49:03;;;;;;;14.77;8.57;;;15.80;98.40;;;;;;4994424;28;20073;-70
2021/09/08 02:51:29;;;;;;;19.92;9.10;;;15.80;98.40;;;;;;4994311;28;20045;-70
2021/09/08 02:53:54;;;;;;;16.75;8.65;;;15.70;98.50;;;;;;4993618;28;20486;-70
2021/09/08 02:56:20;;;;;;;13.98;8.40;;;15.70;98.50;;;;;;4994402;28;20034;-71
2021/09/08 02:58:46;;;;;;;16.58;8.90;;;15.80;98.40;;;;;;4994260;28;20408;-70
2021/09/08 03:01:12;;;;;;;15.43;8.90;;;15.70;98.40;;;;;;4992918;28;20034;-71
2021/09/08 03:03:38;;;;;;;19.10;9.45;;;15.80;98.50;;;;;;4994068;28;20031;-70
2021/09/08 03:06:04;;;;;;;16.48;8.90;;;15.70;98.50;;;;;;4994532;28;20129;-70
2021/09/08 03:08:29;;;;;;;17.25;8.80;;;15.70;98.50;;;;;;4994057;28;20625;-70
2021/09/08 03:10:55;;;;;;;16.15;8.60;;;15.70;98.50;;;;;;4993889;28;20026;-71
2021/09/08 03:13:21;;;;;;;14.35;8.65;;;15.60;98.40;;;;;;4993696;28;20038;-70
2021/09/08 03:15:47;;;;;;;16.90;9.05;;;15.60;98.50;;;;;;4993650;28;20034;-69
2021/09/08 03:18:13;;;;;;;19.88;9.13;;;15.50;98.50;;;;;;4993739;28;20124;-71
2021/09/08 03:20:39;;;;;;;14.90;9.13;;;15.50;98.70;;;;;;4994181;28;20128;-70
2021/09/08 03:23:04;;;;;;;14.25;8.40;;;15.60;98.60;;;;;;4993457;28;20054;-71
2021/09/08 03:25:30;;;;;;;16.17;8.93;;;15.70;98.50;;;;;;4993553;28;20030;-69
2021/09/08 03:27:56;;;;;;;13.25;8.35;;;15.60;98.70;;;;;;4993689;28;20031;-70
2021/09/08 03:30:22;;;;;;;18.60;8.63;;;15.80;98.20;;;;;;4992422;28;20053;-71
2021/09/08 03:32:48;;;;;;;20.40;9.07;;;15.70;98.30;;;;;;4993906;28;20510;-69
2021/09/08 03:35:14;;;;;;;23.90;9.55;;;15.70;98.30;;;;;;4993341;28;20491;-70
2021/09/08 03:37:40;;;;;;;16.77;8.63;;;15.60;98.30;;;;;;4993487;28;20098;-70
2021/09/08 03:40:06;;;;;;;18.85;8.75;;;15.60;98.30;;;;;;4993391;28;20460;-70
2021/09/08 03:42:32;;;;;;;21.45;9.38;;;15.70;98.30;;;;;;4993359;28;20053;-71
2021/09/08 03:44:58;;;;;;;19.00;8.40;;;15.60;98.20;;;;;;4993478;28;20027;-70
2021/09/08 03:47:24;;;;;;;16.73;9.05;;;15.60;98.20;;;;;;4992238;28;20337;-71
2021/09/08 03:49:49;;;;;;;19.02;8.77;;;15.50;98.30;;;;;;4992235;28;20046;-71
2021/09/08 03:52:17;;;;;;;18.20;8.98;;;15.50;98.40;;;;;;4993152;28;20034;-71
2021/09/08 03:54:43;;;;;;;16.27;8.93;;;15.40;98.40;;;;;;4993259;28;20036;-72
2021/09/08 03:57:09;;;;;;;18.10;9.38;;;15.40;98.60;;;;;;4993626;28;20027;-72
2021/09/08 03:59:39;;;;;;;17.65;9.23;;;15.40;98.50;;;;;;4993087;28;20030;-69
2021/09/08 04:02:05;;;;;;;17.27;9.38;;;15.50;98.40;;;;;;4991930;28;20427;-69
2021/09/08 04:04:30;;;;;;;18.73;9.38;;;15.50;98.30;;;;;;4992911;28;20369;-69
2021/09/08 04:06:56;;;;;;;14.30;8.82;;;15.50;98.20;;;;;;4991920;28;20031;-70
2021/09/08 04:09:22;;;;;;;18.08;9.02;;;15.40;98.30;;;;;;4992558;28;20030;-70
2021/09/08 04:11:47;;;;;;;18.13;8.85;;;15.30;98.50;;;;;;4993287;28;20084;-70
2021/09/08 04:14:13;;;;;;;17.10;8.52;;;15.30;98.50;;;;;;4992781;28;20018;-70
2021/09/08 04:16:39;;;;;;;18.38;8.90;;;15.30;98.40;;;;;;4992491;28;20039;-71
2021/09/08 04:19:04;;;;;;;16.75;8.93;;;15.30;98.30;;;;;;4992628;28;20034;-71
2021/09/08 04:21:30;;;;;;;18.40;9.02;;;15.20;98.30;;;;;;4991134;28;20130;-71
2021/09/08 04:23:56;;;;;;;16.88;9.75;;;15.20;98.50;;;;;;4993352;28;20262;-71
2021/09/08 04:26:22;;;;;;;19.13;9.55;;;15.20;98.70;;;;;;4992342;28;20049;-71
2021/09/08 04:28:48;;;;;;;22.15;9.88;;;15.20;98.60;;;;;;4992743;28;20118;-71
2021/09/08 04:31:14;;;;;;;18.45;9.82;;;15.20;98.60;;;;;;4992538;28;20471;-70
2021/09/08 04:33:40;;;;;;;19.40;9.93;;;15.30;98.60;;;;;;4992375;28;20030;-72
2021/09/08 04:36:05;;;;;;;19.73;10.02;;;15.20;98.60;;;;;;4992840;28;20023;-71
2021/09/08 04:38:31;;;;;;;17.15;9.98;;;15.30;98.60;;;;;;4992044;28;20242;-70
2021/09/08 04:40:57;;;;;;;18.42;9.88;;;15.20;98.60;;;;;;4992261;28;20031;-71
2021/09/08 04:43:22;;;;;;;19.92;10.00;;;15.20;98.50;;;;;;4992116;28;20121;-70
2021/09/08 04:45:48;;;;;;;17.05;9.82;;;15.20;98.60;;;;;;4992253;28;20030;-71
2021/09/08 04:48:14;;;;;;;24.90;9.85;;;15.20;98.60;;;;;;4991992;28;20029;-70
2021/09/08 04:50:40;;;;;;;16.92;10.65;;;15.20;98.80;;;;;;4992489;28;20030;-70
2021/09/08 04:53:06;;;;;;;16.42;9.57;;;15.10;98.70;;;;;;4991197;28;20030;-70
2021/09/08 04:55:32;;;;;;;18.30;9.63;;;15.20;98.70;;;;;;4991575;28;20030;-69
2021/09/08 04:57:58;;;;;;;17.75;10.63;;;15.30;98.60;;;;;;4992061;28;20095;-69
2021/09/08 05:00:23;;;;;;;20.00;11.35;;;15.20;98.50;;;;;;4991717;28;20022;-70
2021/09/08 05:02:49;;;;;;;23.10;10.07;;;15.20;98.60;;;;;;4991980;28;20188;-70
2021/09/08 05:05:14;;;;;;;20.55;9.68;;;15.20;98.70;;;;;;4991918;28;20100;-70
2021/09/08 05:07:40;;;;;;;20.67;10.15;;;15.20;98.70;;;;;;4990681;28;20515;-70
2021/09/08 05:10:06;;;;;;;19.80;9.77;;;15.10;98.70;;;;;;4990987;28;20118;-70
2021/09/08 05:12:32;;;;;;;21.38;9.80;;;15.10;98.70;;;;;;4991726;28;20125;-70
2021/09/08 05:14:58;;;;;;;23.00;10.68;;;15.00;98.70;;;;;;4992050;28;20022;-71
2021/09/08 05:17:24;;;;;;;26.45;10.73;;;15.10;98.90;;;;;;4991653;28;20092;-70
2021/09/08 05:19:49;;;;;;;17.52;10.07;;;15.10;98.80;;;;;;4991393;28;20093;-70
2021/09/08 05:22:15;;;;;;;20.65;10.90;;;15.20;98.80;;;;;;4991595;28;20035;-72
2021/09/08 05:24:41;;;;;;;18.80;10.35;;;15.10;98.90;;;;;;4991957;28;20412;-72
2021/09/08 05:27:07;;;;;;;21.20;9.85;;;15.20;99.10;;;;;;4991302;28;20467;-71
2021/09/08 05:29:32;;;;;;;20.10;10.50;;;15.20;98.90;;;;;;4991590;28;20026;-71
2021/09/08 05:31:58;;;;;;;33.90;16.40;;;15.30;98.90;;;;;;4991567;28;20049;-72
2021/09/08 05:34:23;;;;;;;22.25;10.90;;;15.30;98.80;;;;;;4991864;28;20130;-70
2021/09/08 05:36:49;;;;;;;19.52;11.02;;;15.30;98.80;;;;;;4991355;28;20038;-75
2021/09/08 05:39:14;;;;;;;24.85;10.57;;;15.30;98.90;;;;;;4990667;28;20045;-72
2021/09/08 05:41:40;;;;;;;20.33;10.35;;;15.30;99.00;;;;;;4992084;28;20535;-72
2021/09/08 05:44:06;;;;;;;27.05;10.95;;;15.40;98.80;;;;;;4991695;28;20472;-72
2021/09/08 05:46:31;;;;;;;21.23;10.30;;;15.50;98.60;;;;;;4991403;28;20367;-72
2021/09/08 05:48:57;;;;;;;24.35;11.07;;;15.60;98.90;;;;;;4991565;28;20464;-72
2021/09/08 05:51:23;;;;;;;22.25;9.98;;;15.70;98.70;;;;;;4991293;28;20096;-72
2021/09/08 05:53:48;;;;;;;18.33;9.68;;;15.70;98.60;;;;;;4991878;28;20068;-73
2021/09/08 05:56:14;;;;;;;23.95;11.30;;;15.70;98.60;;;;;;4991336;28;20026;-73
2021/09/08 05:58:39;;;;;;;23.50;11.15;;;15.80;98.70;;;;;;4990428;28;20023;-73
2021/09/08 06:01:05;;;;;;;22.15;10.65;;;15.80;98.60;;;;;;4991309;28;20038;-72
2021/09/08 06:03:30;;;;;;;19.17;10.02;;;15.80;98.70;;;;;;4991021;28;20023;-72
2021/09/08 06:05:56;;;;;;;19.42;10.50;;;15.70;98.80;;;;;;4991927;28;20037;-72
2021/09/08 06:08:22;;;;;;;22.52;10.30;;;15.80;98.80;;;;;;4993778;28;20034;-73
2021/09/08 06:10:48;;;;;;;17.70;9.93;;;15.80;98.90;;;;;;4994018;28;20034;-71
2021/09/08 06:13:13;;;;;;;18.63;10.52;;;15.70;98.90;;;;;;4995076;28;20043;-72
2021/09/08 06:15:39;;;;;;;22.17;10.48;;;15.70;99.00;;;;;;4994864;28;20141;-72
2021/09/08 06:18:06;;;;;;;19.25;10.88;;;15.80;99.00;;;;;;4995317;28;20027;-71
2021/09/08 06:20:32;;;;;;;21.48;11.13;;;15.80;99.00;;;;;;4994652;28;20039;-71
2021/09/08 06:22:59;;;;;;;25.40;11.10;;;15.90;99.00;;;;;;4994773;28;20085;-71
2021/09/08 06:25:25;;;;;;;20.45;10.13;;;15.90;99.10;;;;;;4994837;28;20042;-73
2021/09/08 06:27:51;;;;;;;20.02;11.35;;;15.90;99.00;;;;;;4994617;28;20041;-73
2021/09/08 06:30:16;;;;;;;20.40;11.07;;;15.90;99.10;;;;;;4994577;28;20101;-73
2021/09/08 06:32:42;;;;;;;20.23;10.27;;;15.90;99.10;;;;;;4994909;28;20080;-72
2021/09/08 06:35:08;;;;;;;17.38;9.48;;;16.00;99.30;;;;;;4994551;28;20410;-71
2021/09/08 06:37:34;;;;;;;22.67;10.00;;;16.10;99.10;;;;;;4994441;28;20026;-72
2021/09/08 06:39:59;;;;;;;20.55;11.55;;;16.20;99.10;;;;;;4994337;28;20027;-72
2021/09/08 06:42:25;;;;;;;19.42;10.27;;;16.20;99.30;;;;;;4994765;28;20049;-70
2021/09/08 06:44:54;;;;;;;29.10;10.55;;;16.30;99.00;;;;;;4994642;28;20296;-72
2021/09/08 06:47:21;;;;;;;26.80;11.93;;;16.30;99.10;;;;;;4994212;28;20030;-72
2021/09/08 06:49:48;;;;;;;19.63;10.45;;;16.40;99.10;;;;;;4994170;28;20026;-71
2021/09/08 06:52:14;;;;;;;19.42;10.30;;;16.50;98.90;;;;;;4994049;28;20384;-72
2021/09/08 06:54:39;;;;;;;17.65;9.80;;;16.50;99.00;;;;;;4994043;28;20030;-72
2021/09/08 06:57:05;;;;;;;23.38;12.02;;;16.50;99.10;;;;;;4994316;28;20026;-72
2021/09/08 06:59:30;;;;;;;26.65;12.13;;;16.50;98.90;;;;;;4993805;28;20061;-72
2021/09/08 07:01:56;;;;;;;22.48;11.55;;;16.60;99.00;;;;;;4993835;28;20031;-72
2021/09/08 07:04:22;;;;;;;17.35;10.18;;;16.60;99.00;;;;;;4992604;28;20061;-73
2021/09/08 07:06:47;;;;;;;24.95;10.48;;;16.60;98.90;;;;;;4993925;28;20045;-71
2021/09/08 07:09:13;;;;;;;18.33;9.85;;;16.70;98.90;;;;;;4993679;28;20455;-72
2021/09/08 07:11:38;;;;;;;17.70;9.93;;;16.80;98.80;;;;;;4994359;28;20022;-72
2021/09/08 07:14:04;;;;;;;17.65;9.50;;;16.90;98.90;;;;;;4993721;28;20458;-72
2021/09/08 07:16:29;;;;;;;21.45;10.57;;;17.00;98.80;;;;;;4993358;28;20146;-72
2021/09/08 07:18:55;;;;;;;21.73;10.82;;;17.10;98.80;;;;;;4991484;28;20037;-71
2021/09/08 07:21:21;;;;;;;19.75;10.45;;;17.10;98.50;;;;;;4992989;28;20085;-71
2021/09/08 07:23:46;;;;;;;28.00;10.48;;;17.20;98.60;;;;;;4993843;28;20374;-72
2021/09/08 07:26:12;;;;;;;22.95;10.82;;;17.30;98.60;;;;;;4992194;28;20038;-72
2021/09/08 07:28:38;;;;;;;23.70;11.07;;;17.30;98.40;;;;;;4993280;28;20113;-72
2021/09/08 07:31:04;;;;;;;21.98;9.82;;;17.40;98.30;;;;;;4993061;28;20147;-71
2021/09/08 07:33:30;;;;;;;22.30;10.98;;;17.50;98.40;;;;;;4993107;28;20026;-72
2021/09/08 07:35:56;;;;;;;26.75;9.95;;;17.60;98.20;;;;;;4993826;28;20045;-72
2021/09/08 07:38:22;;;;;;;23.85;10.95;;;17.70;98.10;;;;;;4993239;28;20026;-72
2021/09/08 07:40:48;;;;;;;22.52;10.80;;;17.70;98.00;;;;;;4993488;28;20030;-74
2021/09/08 07:43:13;;;;;;;24.33;10.30;;;17.80;98.00;;;;;;4992915;28;20337;-72
2021/09/08 07:45:39;;;;;;;18.40;10.68;;;17.90;97.90;;;;;;4993250;28;20106;-73
2021/09/08 07:48:05;;;;;;;20.83;10.63;;;18.00;97.80;;;;;;4993489;28;20101;-72
2021/09/08 07:50:31;;;;;;;29.05;11.07;;;18.00;97.60;;;;;;4992962;28;20031;-72
2021/09/08 07:52:57;;;;;;;25.98;11.25;;;18.10;97.40;;;;;;4992992;28;20109;-73
2021/09/08 07:55:23;;;;;;;25.23;11.40;;;18.20;97.30;;;;;;4993144;28;20104;-72
2021/09/08 07:57:49;;;;;;;22.30;11.20;;;18.20;97.20;;;;;;4993361;28;20034;-73
2021/09/08 08:00:15;;;;;;;28.42;11.88;;;18.30;97.30;;;;;;4992928;28;20102;-72
2021/09/08 08:02:48;;;;;;;18.08;10.48;;;18.40;97.30;;;;;;4993764;28;20026;-72
2021/09/08 08:05:14;;;;;;;28.48;12.15;;;18.40;97.30;;;;;;4992650;28;20037;-72
2021/09/08 08:07:41;;;;;;;24.33;12.60;;;18.50;97.50;;;;;;4992525;28;20040;-72
2021/09/08 08:10:07;;;;;;;27.67;13.60;;;18.60;97.30;;;;;;4992923;28;20035;-72
2021/09/08 08:12:33;;;;;;;22.15;12.45;;;18.70;97.10;;;;;;4993178;28;20041;-72
2021/09/08 08:14:59;;;;;;;25.42;12.48;;;18.80;97.10;;;;;;4993229;28;20030;-72
2021/09/08 08:17:24;;;;;;;24.60;12.32;;;18.90;97.10;;;;;;4991487;28;20468;-72
2021/09/08 08:19:50;;;;;;;20.38;12.30;;;19.10;97.20;;;;;;4992374;28;20037;-73
2021/09/08 08:22:16;;;;;;;24.20;11.65;;;19.30;96.30;;;;;;4992003;28;20096;-72
2021/09/08 08:24:42;;;;;;;19.63;11.13;;;20.30;96.40;;;;;;4991292;28;20033;-73
2021/09/08 08:27:08;;;;;;;23.85;11.55;;;21.60;94.80;;;;;;4992550;28;20022;-71
2021/09/08 08:29:34;;;;;;;25.08;10.07;;;22.50;93.30;;;;;;4992302;28;20034;-73
2021/09/08 08:32:00;;;;;;;15.75;9.75;;;23.50;92.80;;;;;;4991118;28;20542;-73
2021/09/08 08:34:26;;;;;;;20.52;11.20;;;24.90;91.80;;;;;;4991322;28;20042;-72
2021/09/08 08:36:51;;;;;;;19.45;10.13;;;26.10;90.00;;;;;;4992217;28;20053;-73
2021/09/08 08:39:17;;;;;;;19.23;9.48;;;27.10;86.20;;;;;;4992248;28;20491;-73
2021/09/08 08:41:43;;;;;;;18.08;9.63;;;27.80;83.50;;;;;;4991647;28;20052;-72
2021/09/08 08:44:09;;;;;;;17.73;9.30;;;28.60;79.50;;;;;;4992010;28;20050;-72
2021/09/08 08:46:36;;;;;;;18.48;10.30;;;29.20;77.90;;;;;;4991904;28;20034;-72
2021/09/08 08:49:03;;;;;;;21.27;10.85;;;29.80;75.00;;;;;;4992008;28;20104;-73
2021/09/08 08:51:29;;;;;;;20.20;10.60;;;30.40;72.00;;;;;;4991787;28;20026;-73
2021/09/08 08:53:55;;;;;;;17.58;8.95;;;30.80;69.40;;;;;;4992403;28;20041;-74
2021/09/08 08:56:21;;;;;;;17.35;9.50;;;31.00;65.60;;;;;;4991957;28;20364;-73
2021/09/08 08:58:47;;;;;;;17.65;10.98;;;31.50;63.50;;;;;;4991618;28;20444;-73
2021/09/08 09:01:24;;;;;;;15.10;9.75;;;32.10;63.00;;;;;;4991805;28;20375;-74
2021/09/08 09:04:05;;;;;;;16.65;8.85;;;32.30;59.70;;;;;;4991913;28;20022;-73
2021/09/08 09:06:42;;;;;;;21.05;10.05;;;32.60;60.50;;;;;;4991677;28;20022;-72
2021/09/08 09:09:14;;;;;;;25.88;11.10;;;32.00;58.10;;;;;;4992131;28;20018;-71
2021/09/08 09:11:42;;;;;;;22.35;9.98;;;32.70;58.80;;;;;;4991898;28;20073;-71
2021/09/08 09:14:09;;;;;;;13.50;8.35;;;32.40;56.60;;;;;;4991821;28;20341;-72
2021/09/08 09:16:37;;;;;;;15.40;9.05;;;33.20;56.80;;;;;;4990290;28;20038;-72
2021/09/08 09:19:02;;;;;;;;;;;33.00;55.30;;;;;;4990931;28;20046;-72
2021/09/08 09:21:28;;;;;;;14.10;9.32;;;33.60;56.80;;;;;;4991353;28;20275;-72
2021/09/08 09:23:57;;;;;;;16.35;9.48;;;33.80;56.90;;;;;;4991844;28;20500;-73
2021/09/08 09:26:26;;;;;;;22.20;9.52;;;33.90;55.10;;;;;;4991468;28;20487;-72
2021/09/08 09:28:52;;;;;;;16.33;9.43;;;34.10;55.50;;;;;;4991522;28;20035;-73
2021/09/08 09:31:23;;;;;;;22.02;9.80;;;34.10;54.40;;;;;;4991607;28;20460;-72
2021/09/08 09:33:54;;;;;;;12.60;8.43;;;33.50;55.20;;;;;;4991272;28;20031;-72
2021/09/08 09:36:23;;;;;;;13.43;8.52;;;33.20;53.80;;;;;;4991299;28;20031;-71
2021/09/08 09:38:51;;;;;;;16.30;8.82;;;33.80;55.00;;;;;;4991768;28;20014;-72
2021/09/08 09:41:22;;;;;;;14.10;8.30;;;34.10;52.60;;;;;;4991261;28;20027;-73
2021/09/08 09:43:48;;;;;;;12.85;8.75;;;34.00;52.20;;;;;;4994766;28;20035;-72
2021/09/08 09:46:13;;;;;;;16.77;8.30;;;34.50;53.00;;;;;;4995285;28;20067;-72
2021/09/08 09:48:39;;;;;;;21.85;10.15;;;33.90;51.40;;;;;;4995192;28;20033;-73
2021/09/08 09:51:08;;;;;;;20.92;9.57;;;34.30;50.90;;;;;;4995402;28;20027;-73
2021/09/08 09:53:34;;;;;;;15.10;9.25;;;34.30;52.00;;;;;;4994075;28;20415;-72
2021/09/08 09:56:00;;;;;;;15.93;8.98;;;35.00;50.90;;;;;;4995080;28;20580;-73
2021/09/08 09:58:26;;;;;;;23.35;10.27;;;35.50;50.90;;;;;;4993914;28;20416;-74
2021/09/08 10:00:52;;;;;;;14.93;9.68;;;35.10;48.50;;;;;;4994939;28;20030;-74
2021/09/08 10:03:22;;;;;;;18.83;10.68;;;34.80;49.00;;;;;;4994993;28;20034;-73
2021/09/08 10:05:48;;;;;;;16.92;10.18;;;35.00;50.10;;;;;;4995365;28;20040;-73
2021/09/08 10:08:19;;;;;;;17.30;9.68;;;35.30;49.30;;;;;;4994757;28;20422;-74
2021/09/08 10:10:46;;;;;;;20.95;9.85;;;35.70;49.80;;;;;;4995015;28;20054;-73
2021/09/08 10:13:29;;;;;;;15.63;10.77;;;36.80;48.20;;;;;;4994854;28;20044;-73
2021/09/08 10:15:55;;;;;;;16.98;9.32;;;36.10;46.50;;;;;;4994663;28;20464;-74
2021/09/08 10:18:25;;;;;;;15.07;9.32;;;36.20;46.70;;;;;;4994756;28;20061;-71
2021/09/08 10:21:06;;;;;;;22.10;15.07;;;36.10;47.30;;;;;;4994924;28;20030;-73
2021/09/08 10:23:44;;;;;;;15.40;8.90;;;37.10;44.50;;;;;;4994657;28;20046;-73
2021/09/08 10:26:20;;;;;;;13.80;8.00;;;37.40;44.30;;;;;;4993229;28;20428;-71
2021/09/08 10:28:46;;;;;;;12.85;8.77;;;37.50;42.90;;;;;;4994515;28;20026;-73
2021/09/08 10:31:14;;;;;;;15.73;8.93;;;38.10;42.80;;;;;;4994264;28;20461;-72
2021/09/08 10:33:42;;;;;;;14.73;7.78;;;37.60;43.50;;;;;;4994277;28;20026;-74
2021/09/08 10:36:14;;;;;;;13.48;7.70;;;39.00;41.80;;;;;;4995017;28;20114;-72
2021/09/08 10:38:40;;;;;;;13.75;7.95;;;39.40;40.40;;;;;;4994643;28;20117;-72
2021/09/08 10:41:08;;;;;;;16.55;7.88;;;38.30;39.80;;;;;;4994183;28;20097;-72
2021/09/08 10:43:37;;;;;;;16.55;8.10;;;37.80;42.00;;;;;;4994413;28;20518;-72
2021/09/08 10:46:06;;;;;;;17.90;7.18;;;38.00;41.30;;;;;;4994108;28;20057;-73
2021/09/08 10:48:43;;;;;;;15.70;7.20;;;38.80;41.50;;;;;;4993838;28;20114;-73
2021/09/08 10:51:16;;;;;;;17.95;6.63;;;39.90;39.40;;;;;;4994877;28;20019;-72
2021/09/08 10:53:42;;;;;;;13.00;6.53;;;39.50;39.70;;;;;;4993019;28;20034;-71
2021/09/08 10:56:09;;;;;;;13.77;6.70;;;39.30;39.50;;;;;;4993857;28;20061;-73
2021/09/08 10:58:53;;;;;;;;;;;39.60;38.80;;;;;;4994600;28;20030;-70
2021/09/08 11:01:19;;;;;;;10.02;5.38;;;40.30;39.10;;;;;;4993932;28;20307;-69
2021/09/08 11:03:45;;;;;;;15.32;6.13;;;38.70;39.30;;;;;;4993743;28;20078;-69
2021/09/08 11:06:11;;;;;;;11.82;6.32;;;38.40;39.50;;;;;;4994139;28;20312;-73
2021/09/08 11:08:36;;;;;;;15.80;6.85;;;38.90;37.80;;;;;;4992490;28;20090;-73
2021/09/08 11:11:09;;;;;;;12.70;5.97;;;38.80;36.80;;;;;;4994047;28;20116;-73
2021/09/08 11:13:35;;;;;;;9.75;6.18;;;38.40;37.30;;;;;;4993372;28;20399;-73
2021/09/08 11:16:00;;;;;;;11.50;7.13;;;37.80;37.20;;;;;;4993463;28;20042;-73
2021/09/08 11:18:36;;;;;;;12.80;5.85;;;37.00;37.30;;;;;;4992348;28;20423;-72
2021/09/08 11:21:04;;;;;;;12.45;6.53;;;37.00;38.80;;;;;;4993898;28;20141;-73
2021/09/08 11:23:31;;;;;;;13.85;6.60;;;36.70;38.60;;;;;;4992327;28;20034;-73
2021/09/08 11:26:07;;;;;;;14.60;6.15;;;36.00;39.20;;;;;;4993501;28;20080;-73
2021/09/08 11:28:34;;;;;;;9.27;5.40;;;36.10;39.60;;;;;;4993224;28;20049;-72
2021/09/08 11:30:59;;;;;;;10.37;5.80;;;35.50;40.40;;;;;;4993580;28;20038;-72
2021/09/08 11:33:35;;;;;;;9.52;5.10;;;35.20;40.90;;;;;;4992930;28;20355;-73
2021/09/08 11:36:01;;;;;;;11.18;6.55;;;34.40;42.80;;;;;;4993507;28;20105;-70
2021/09/08 11:38:30;;;;;;;11.63;5.95;;;33.80;42.80;;;;;;4992915;28;20114;-71
2021/09/08 11:41:01;;;;;;;13.55;5.45;;;33.20;44.10;;;;;;4993020;28;20109;-71
2021/09/08 11:43:30;;;;;;;8.13;5.40;;;32.60;44.10;;;;;;4992968;28;20061;-74
2021/09/08 11:45:55;;;;;;;8.93;5.90;;;32.40;44.50;;;;;;4992798;28;20345;-73
2021/09/08 11:48:31;;;;;;;11.30;6.43;;;32.00;44.90;;;;;;4992758;28;20169;-72
2021/09/08 11:51:05;;;;;;;11.82;6.32;;;31.80;46.30;;;;;;4992293;28;20076;-73
2021/09/08 11:53:31;;;;;;;8.30;5.75;;;31.80;46.30;;;;;;4992714;28;20074;-74
2021/09/08 11:56:14;;;;;;;10.13;5.50;;;31.40;46.80;;;;;;4991699;28;20069;-71
2021/09/08 11:58:43;;;;;;;13.48;6.38;;;31.30;46.30;;;;;;4992726;28;20050;-70
2021/09/08 12:01:11;;;;;;;13.27;5.38;;;30.80;47.10;;;;;;4991774;28;20416;-69
2021/09/08 12:03:42;;;;;;;11.98;5.47;;;30.60;47.50;;;;;;4992690;28;20030;-70
2021/09/08 12:06:10;;;;;;;14.27;6.00;;;30.50;48.80;;;;;;4992616;28;20447;-67
2021/09/08 12:08:36;;;;;;;15.98;7.10;;;30.40;49.30;;;;;;4991616;28;20426;-72
2021/09/08 12:11:03;;;;;;;13.25;6.25;;;30.10;50.50;;;;;;4992640;28;20042;-69
2021/09/08 12:13:31;;;;;;;13.65;5.45;;;29.80;52.10;;;;;;4992410;28;20096;-72
2021/09/08 12:15:57;;;;;;;13.75;6.28;;;29.90;50.60;;;;;;4992460;28;20030;-73
2021/09/08 12:18:23;;;;;;;10.75;5.32;;;29.70;51.20;;;;;;4992450;28;20026;-72
2021/09/08 12:20:49;;;;;;;19.27;7.05;;;29.60;51.90;;;;;;4991424;28;20400;-72
2021/09/08 12:23:26;;;;;;;18.05;6.43;;;29.40;52.10;;;;;;4992186;28;20043;-73
2021/09/08 12:26:18;;;;;;;13.57;5.68;;;29.40;51.50;;;;;;4991028;28;20699;-71
2021/09/08 12:29:07;;;;;;;11.25;5.30;;;29.30;51.80;;;;;;4990251;28;20054;-72
2021/09/08 12:31:49;;;;;;;10.27;5.75;;;29.20;52.20;;;;;;4992371;28;20045;-73
2021/09/08 12:34:15;;;;;;;15.10;5.05;;;29.20;52.50;;;;;;4991216;28;20038;-72